Time;durP1;ratioP1;P1;durP2;ratioP2;P2;SDS_P1;SDS_P2;PMS_P1;PMS_P2;Temp;Humidity;BMP_temperature;BMP_pressure;BME280_temperature;BME280_humidity;BME280_pressure;Samples;Min_cycle;Max_cycle;Signal;HPM_P1;HPM_P2
2022/12/30 00:01:06;;;;;;;4.43;2.53;;;;;;;;;;5078901;28;20020;-86
2022/12/30 00:03:32;;;;;;;3.85;2.47;;;;;;;;;;5076431;28;20506;-88
2022/12/30 00:05:57;;;;;;;3.30;2.35;;;;;;;;;;5095171;28;20016;-87
2022/12/30 00:11:07;;;;;;;3.42;2.40;;;;;;;;;;5078757;28;20517;-86
2022/12/30 00:33:07;;;;;;;6.25;3.03;;;;;;;;;;5076217;28;20047;-88
2022/12/30 00:35:33;;;;;;;2.80;2.22;;;;;;;;;;5092699;28;20067;-87
2022/12/30 00:37:59;;;;;;;4.30;2.55;;;;;;;;;;5075437;28;20027;-89
2022/12/30 00:40:24;;;;;;;4.15;2.80;;;;;;;;;;5076556;28;20388;-89
2022/12/30 00:43:08;;;;;;;4.55;2.70;;;;;;;;;;5077570;28;20028;-88
2022/12/30 00:45:35;;;;;;;2.35;1.73;;;;;;;;;;5076478;28;20029;-90
2022/12/30 00:56:13;;;;;;;3.22;2.50;;;;;;;;;;5076560;28;20035;-89
2022/12/30 00:58:38;;;;;;;5.38;3.47;;;;;;;;;;5077038;28;20021;-88
2022/12/30 01:01:03;;;;;;;13.80;3.20;;;;;;;;;;5092913;28;20111;-87
2022/12/30 01:03:29;;;;;;;2.05;1.77;;;;;;;;;;5070985;28;20032;-86
2022/12/30 01:05:54;;;;;;;2.63;2.15;;;;;;;;;;5077072;28;20020;-87
2022/12/30 01:08:20;;;;;;;5.57;3.30;;;;;;;;;;5074732;28;20094;-86
2022/12/30 01:10:45;;;;;;;5.07;2.75;;;;;;;;;;5072341;28;20032;-87
2022/12/30 01:13:10;;;;;;;4.57;2.95;;;;;;;;;;5077093;28;20021;-88
2022/12/30 01:15:36;;;;;;;5.43;3.38;;;;;;;;;;5077206;28;20048;-87
2022/12/30 01:18:01;;;;;;;3.97;3.15;;;;;;;;;;5092035;28;20025;-88
2022/12/30 01:20:27;;;;;;;4.53;3.33;;;;;;;;;;5075537;28;20025;-89
2022/12/30 01:22:53;;;;;;;4.18;2.78;;;;;;;;;;5073915;28;20043;-88
2022/12/30 01:25:19;;;;;;;4.20;3.15;;;;;;;;;;5075235;28;20040;-88
2022/12/30 01:27:50;;;;;;;3.28;1.95;;;;;;;;;;5076662;28;20044;-88
2022/12/30 01:30:15;;;;;;;4.38;2.67;;;;;;;;;;5075275;28;20428;-89
2022/12/30 01:32:41;;;;;;;3.58;2.20;;;;;;;;;;5076249;28;20032;-88
2022/12/30 01:35:07;;;;;;;4.43;2.72;;;;;;;;;;5076682;28;20056;-87
2022/12/30 01:37:33;;;;;;;3.67;2.22;;;;;;;;;;5076148;28;20021;-88
2022/12/30 01:39:58;;;;;;;3.50;2.63;;;;;;;;;;5074606;28;20071;-89
2022/12/30 01:42:26;;;;;;;3.55;2.78;;;;;;;;;;5074812;28;20028;-86
2022/12/30 01:44:56;;;;;;;4.70;2.72;;;;;;;;;;5074038;28;20039;-87
2022/12/30 01:47:47;;;;;;;4.03;2.53;;;;;;;;;;5073789;28;20029;-86
2022/12/30 01:50:17;;;;;;;7.07;2.42;;;;;;;;;;5090025;28;20029;-88
2022/12/30 01:53:03;;;;;;;4.20;2.83;;;;;;;;;;5088966;28;20375;-87
2022/12/30 01:55:37;;;;;;;8.38;5.88;;;;;;;;;;5074553;28;20043;-86
2022/12/30 01:58:08;;;;;;;14.88;6.85;;;;;;;;;;5075880;28;20468;-88
2022/12/30 02:00:33;;;;;;;11.00;5.63;;;;;;;;;;5074191;28;20476;-87
2022/12/30 02:02:59;;;;;;;5.95;4.35;;;;;;;;;;5076285;28;20050;-86
2022/12/30 02:05:28;;;;;;;8.07;4.25;;;;;;;;;;5073211;28;20028;-87
2022/12/30 02:08:09;;;;;;;6.70;4.65;;;;;;;;;;5074841;28;20097;-87
2022/12/30 02:10:37;;;;;;;3.65;2.95;;;;;;;;;;5074641;28;20032;-89
2022/12/30 02:13:03;;;;;;;5.20;3.55;;;;;;;;;;5068435;28;20045;-86
2022/12/30 02:15:45;;;;;;;3.28;2.50;;;;;;;;;;5073937;28;20021;-87
2022/12/30 02:18:21;;;;;;;6.70;2.97;;;;;;;;;;5073391;28;20161;-86
2022/12/30 02:20:49;;;;;;;5.88;2.42;;;;;;;;;;5090707;28;20388;-88
2022/12/30 02:23:52;;;;;;;4.55;2.25;;;;;;;;;;5072001;28;20029;-87
2022/12/30 02:26:26;;;;;;;6.10;3.33;;;;;;;;;;5073311;28;20389;-88
2022/12/30 02:29:19;;;;;;;3.00;1.92;;;;;;;;;;5074252;28;20027;-87
2022/12/30 02:31:45;;;;;;;3.65;2.67;;;;;;;;;;5090106;28;20026;-86
2022/12/30 02:34:42;;;;;;;3.67;2.72;;;;;;;;;;5074221;28;20123;-87
2022/12/30 02:37:32;;;;;;;3.75;2.40;;;;;;;;;;5090293;28;20492;-88
2022/12/30 02:40:16;;;;;;;5.57;3.35;;;;;;;;;;5076432;28;20384;-89
2022/12/30 02:45:42;;;;;;;4.57;3.10;;;;;;;;;;5075006;28;20059;-87
2022/12/30 02:48:16;;;;;;;4.38;2.72;;;;;;;;;;5071844;28;20028;-87
2022/12/30 02:53:31;;;;;;;3.85;2.92;;;;;;;;;;5075179;28;20086;-88
2022/12/30 02:55:57;;;;;;;3.75;2.38;;;;;;;;;;5073443;28;20025;-86
2022/12/30 02:58:26;;;;;;;3.20;2.22;;;;;;;;;;5072142;28;20047;-87
2022/12/30 03:04:12;;;;;;;3.53;2.50;;;;;;;;;;5074171;28;20039;-87
2022/12/30 03:06:53;;;;;;;5.72;3.65;;;;;;;;;;5073520;28;20024;-86
2022/12/30 03:13:10;;;;;;;6.43;3.38;;;;;;;;;;5075227;28;20078;-87
2022/12/30 03:15:44;;;;;;;5.45;2.88;;;;;;;;;;5084589;28;20032;-89
2022/12/30 03:18:11;;;;;;;5.90;3.58;;;;;;;;;;5074154;28;20032;-86
2022/12/30 03:20:39;;;;;;;5.53;3.70;;;;;;;;;;5071824;28;20037;-87
2022/12/30 03:28:37;;;;;;;6.65;4.45;;;;;;;;;;5073949;28;20422;-87
2022/12/30 03:31:09;;;;;;;7.28;3.63;;;;;;;;;;5075593;28;20024;-86
2022/12/30 03:33:34;;;;;;;6.30;3.50;;;;;;;;;;5084964;28;20024;-88
2022/12/30 03:36:25;;;;;;;4.35;2.70;;;;;;;;;;5079531;28;20020;-87
2022/12/30 03:39:05;;;;;;;4.55;3.40;;;;;;;;;;5075198;28;20040;-88
2022/12/30 03:41:32;;;;;;;8.32;4.70;;;;;;;;;;5092902;28;20391;-88
2022/12/30 03:43:57;;;;;;;5.78;4.22;;;;;;;;;;5078217;28;20024;-87
2022/12/30 03:46:30;;;;;;;7.32;4.53;;;;;;;;;;5076350;28;20071;-87
2022/12/30 03:48:56;;;;;;;6.70;4.70;;;;;;;;;;5076498;28;20025;-88
2022/12/30 03:51:22;;;;;;;5.88;3.47;;;;;;;;;;5092715;28;20031;-88
2022/12/30 03:53:51;;;;;;;7.65;3.83;;;;;;;;;;5079631;28;20380;-89
2022/12/30 03:56:16;;;;;;;3.83;2.70;;;;;;;;;;5110167;28;20029;-86
2022/12/30 03:58:41;;;;;;;4.40;3.08;;;;;;;;;;5075246;28;20046;-87
2022/12/30 04:01:07;;;;;;;7.70;4.35;;;;;;;;;;5077594;28;20028;-87
2022/12/30 04:03:32;;;;;;;3.72;3.25;;;;;;;;;;5077555;28;20158;-87
2022/12/30 04:05:58;;;;;;;12.00;4.30;;;;;;;;;;5077124;28;20033;-86
2022/12/30 04:08:23;;;;;;;5.15;3.75;;;;;;;;;;5075971;28;20034;-85
2022/12/30 04:10:49;;;;;;;5.75;3.90;;;;;;;;;;5109950;28;20024;-86
2022/12/30 04:13:15;;;;;;;18.05;5.13;;;;;;;;;;5077186;28;20032;-84
2022/12/30 04:15:40;;;;;;;5.90;4.15;;;;;;;;;;5077225;28;20077;-85
2022/12/30 04:18:06;;;;;;;5.50;3.78;;;;;;;;;;5091447;28;20476;-88
2022/12/30 04:20:31;;;;;;;5.18;3.95;;;;;;;;;;5077933;28;20032;-88
2022/12/30 04:22:58;;;;;;;9.90;5.50;;;;;;;;;;5074542;28;20541;-88
2022/12/30 04:25:25;;;;;;;10.07;5.88;;;;;;;;;;5077319;28;20047;-86
2022/12/30 04:27:51;;;;;;;8.57;6.18;;;;;;;;;;5076513;28;20186;-87
2022/12/30 04:30:16;;;;;;;8.45;6.25;;;;;;;;;;5076242;28;20082;-88
2022/12/30 04:32:42;;;;;;;5.78;4.40;;;;;;;;;;5075315;28;20151;-87
2022/12/30 04:35:07;;;;;;;4.50;3.95;;;;;;;;;;5076483;28;20024;-87
2022/12/30 04:37:33;;;;;;;6.40;4.97;;;;;;;;;;5073435;28;20472;-88
2022/12/30 04:39:58;;;;;;;5.18;3.28;;;;;;;;;;5075734;28;20025;-87
2022/12/30 04:42:24;;;;;;;5.47;2.92;;;;;;;;;;5093090;28;20028;-87
2022/12/30 04:44:49;;;;;;;4.18;3.03;;;;;;;;;;5075464;28;20537;-87
2022/12/30 04:47:14;;;;;;;4.78;3.42;;;;;;;;;;5076953;28;20407;-88
2022/12/30 04:49:40;;;;;;;4.38;2.78;;;;;;;;;;5075785;28;20033;-88
2022/12/30 04:52:05;;;;;;;4.55;3.15;;;;;;;;;;5092883;28;20029;-87
2022/12/30 04:54:31;;;;;;;5.45;3.47;;;;;;;;;;5072197;28;20087;-86
2022/12/30 04:56:56;;;;;;;5.03;2.97;;;;;;;;;;5075301;28;20071;-86
2022/12/30 04:59:21;;;;;;;5.65;3.75;;;;;;;;;;5076685;28;20112;-88
2022/12/30 05:01:47;;;;;;;4.28;3.53;;;;;;;;;;5073791;28;20020;-87
2022/12/30 05:04:12;;;;;;;4.45;2.78;;;;;;;;;;5076471;28;20538;-88
2022/12/30 05:06:38;;;;;;;5.05;3.35;;;;;;;;;;5074915;28;20025;-87
2022/12/30 05:09:04;;;;;;;6.25;2.88;;;;;;;;;;5076533;28;20470;-87
2022/12/30 05:11:29;;;;;;;5.38;3.33;;;;;;;;;;5092129;28;20024;-87
2022/12/30 05:13:54;;;;;;;4.05;2.70;;;;;;;;;;5077063;28;20032;-88
2022/12/30 05:16:20;;;;;;;3.90;3.28;;;;;;;;;;5075762;28;20472;-88
2022/12/30 05:18:45;;;;;;;5.35;3.03;;;;;;;;;;5075345;28;20029;-86
2022/12/30 05:21:11;;;;;;;6.35;4.68;;;;;;;;;;5073340;28;20033;-86
2022/12/30 05:26:20;;;;;;;4.95;2.85;;;;;;;;;;5073551;28;20400;-87
2022/12/30 05:28:47;;;;;;;8.38;3.95;;;;;;;;;;5091315;28;20024;-87
2022/12/30 05:31:15;;;;;;;4.85;3.33;;;;;;;;;;5088129;28;20605;-87
2022/12/30 05:33:40;;;;;;;5.50;4.07;;;;;;;;;;5071083;28;20036;-86
2022/12/30 05:36:07;;;;;;;5.65;3.40;;;;;;;;;;5072347;28;20028;-89
2022/12/30 05:38:32;;;;;;;6.03;3.92;;;;;;;;;;5070502;28;20475;-90
2022/12/30 05:40:58;;;;;;;6.65;3.13;;;;;;;;;;5088220;28;20074;-89
2022/12/30 05:43:24;;;;;;;3.03;2.75;;;;;;;;;;5088422;28;20024;-87
2022/12/30 05:45:49;;;;;;;6.35;4.22;;;;;;;;;;5073592;28;20078;-90
2022/12/30 05:48:16;;;;;;;3.65;2.55;;;;;;;;;;5071392;28;20043;-89
2022/12/30 05:50:41;;;;;;;7.63;4.20;;;;;;;;;;5072718;28;20051;-88
2022/12/30 05:53:07;;;;;;;7.30;3.85;;;;;;;;;;5072030;28;20035;-89
2022/12/30 05:55:32;;;;;;;6.47;3.47;;;;;;;;;;5071258;28;20016;-92
2022/12/30 05:57:57;;;;;;;6.10;4.43;;;;;;;;;;5075046;28;20029;-90
2022/12/30 06:00:23;;;;;;;5.32;3.28;;;;;;;;;;5071228;28;20033;-88
2022/12/30 06:02:48;;;;;;;6.97;3.55;;;;;;;;;;5071147;28;20025;-88
2022/12/30 06:05:14;;;;;;;7.72;3.10;;;;;;;;;;5071641;28;20029;-87
2022/12/30 06:07:39;;;;;;;5.68;3.17;;;;;;;;;;5072162;28;20024;-88
2022/12/30 06:10:05;;;;;;;6.03;2.65;;;;;;;;;;5087874;28;20052;-86
2022/12/30 06:12:30;;;;;;;4.70;2.55;;;;;;;;;;5072587;28;20024;-85
2022/12/30 06:14:56;;;;;;;5.70;3.15;;;;;;;;;;5071505;28;20032;-89
2022/12/30 06:17:21;;;;;;;3.35;2.15;;;;;;;;;;5071207;28;20033;-87
2022/12/30 06:19:46;;;;;;;5.43;2.83;;;;;;;;;;5071974;28;20444;-88
2022/12/30 06:22:12;;;;;;;11.52;2.72;;;;;;;;;;5073163;28;20099;-87
2022/12/30 06:24:37;;;;;;;3.92;2.13;;;;;;;;;;5071455;28;20039;-87
2022/12/30 06:27:04;;;;;;;3.78;3.10;;;;;;;;;;5073156;28;20033;-88
2022/12/30 06:29:29;;;;;;;5.15;2.63;;;;;;;;;;5070683;28;20468;-86
2022/12/30 06:31:54;;;;;;;5.75;3.97;;;;;;;;;;5070464;28;20036;-86
2022/12/30 06:34:20;;;;;;;6.20;3.17;;;;;;;;;;5070162;28;20032;-89
2022/12/30 06:36:45;;;;;;;3.75;2.53;;;;;;;;;;5070396;28;20019;-86
2022/12/30 06:39:11;;;;;;;7.80;4.20;;;;;;;;;;5069625;28;20044;-87
2022/12/30 06:41:36;;;;;;;4.82;3.22;;;;;;;;;;5071331;28;20387;-86
2022/12/30 06:44:01;;;;;;;3.72;2.97;;;;;;;;;;5069693;28;20582;-87
2022/12/30 06:46:27;;;;;;;12.73;4.47;;;;;;;;;;5071020;28;20111;-88
2022/12/30 06:48:52;;;;;;;4.30;2.45;;;;;;;;;;5068351;28;20051;-84
2022/12/30 06:51:18;;;;;;;4.25;2.50;;;;;;;;;;5070663;28;20021;-87
2022/12/30 06:53:43;;;;;;;2.75;2.22;;;;;;;;;;5071070;28;20032;-87
2022/12/30 06:56:08;;;;;;;7.70;4.00;;;;;;;;;;5068632;28;20086;-86
2022/12/30 06:58:34;;;;;;;15.93;7.78;;;;;;;;;;5089221;28;20020;-86
2022/12/30 07:00:59;;;;;;;27.30;8.23;;;;;;;;;;5071864;28;20101;-86
2022/12/30 07:03:25;;;;;;;11.63;5.57;;;;;;;;;;5070822;28;20028;-87
2022/12/30 07:05:50;;;;;;;6.43;4.88;;;;;;;;;;5070587;28;20316;-86
2022/12/30 07:08:16;;;;;;;8.43;5.18;;;;;;;;;;5068165;28;20036;-86
2022/12/30 07:10:41;;;;;;;8.25;5.00;;;;;;;;;;5101964;28;20039;-84
2022/12/30 07:13:07;;;;;;;8.65;5.95;;;;;;;;;;5070424;28;20502;-86
2022/12/30 07:15:32;;;;;;;7.65;5.05;;;;;;;;;;5071893;28;20025;-85
2022/12/30 07:17:57;;;;;;;6.65;4.70;;;;;;;;;;5069218;28;20027;-85
2022/12/30 07:20:23;;;;;;;8.10;5.32;;;;;;;;;;5071887;28;20044;-87
2022/12/30 07:22:49;;;;;;;12.48;5.95;;;;;;;;;;5067625;28;20751;-84
2022/12/30 07:25:14;;;;;;;13.30;8.77;;;;;;;;;;5085775;28;20040;-85
2022/12/30 07:27:41;;;;;;;14.52;7.57;;;;;;;;;;5082424;28;20709;-86
2022/12/30 07:30:07;;;;;;;13.90;6.65;;;;;;;;;;5070482;28;20059;-86
2022/12/30 07:32:32;;;;;;;9.20;6.10;;;;;;;;;;5068829;28;20365;-86
2022/12/30 07:34:57;;;;;;;8.05;6.32;;;;;;;;;;5071103;28;20028;-85
2022/12/30 07:37:23;;;;;;;8.90;5.32;;;;;;;;;;5068517;28;20074;-89
2022/12/30 07:39:48;;;;;;;11.10;7.53;;;;;;;;;;5069918;28;20432;-85
2022/12/30 07:42:14;;;;;;;11.50;8.13;;;;;;;;;;5087161;28;20021;-87
2022/12/30 07:44:39;;;;;;;10.35;7.65;;;;;;;;;;5070521;28;20078;-86
2022/12/30 07:47:05;;;;;;;9.35;4.88;;;;;;;;;;5086316;28;20047;-86
2022/12/30 07:49:30;;;;;;;8.43;4.90;;;;;;;;;;5070248;28;20449;-89
2022/12/30 07:51:56;;;;;;;9.02;5.70;;;;;;;;;;5068229;28;20037;-86
2022/12/30 07:54:21;;;;;;;9.52;6.65;;;;;;;;;;5070210;28;20031;-85
2022/12/30 07:56:47;;;;;;;10.45;7.20;;;;;;;;;;5070124;28;20099;-85
2022/12/30 07:59:12;;;;;;;9.77;6.53;;;;;;;;;;5070117;28;20069;-85
2022/12/30 08:01:38;;;;;;;11.63;6.47;;;;;;;;;;5071347;28;20468;-86
2022/12/30 08:04:04;;;;;;;11.80;6.90;;;;;;;;;;5069042;28;20480;-86
2022/12/30 08:06:30;;;;;;;12.98;7.80;;;;;;;;;;5069644;28;20031;-84
2022/12/30 08:08:55;;;;;;;11.32;7.57;;;;;;;;;;5069217;28;20024;-85
2022/12/30 08:11:21;;;;;;;9.63;7.03;;;;;;;;;;5071177;28;20401;-86
2022/12/30 08:13:46;;;;;;;10.18;6.57;;;;;;;;;;5069735;28;20025;-88
2022/12/30 08:16:14;;;;;;;12.48;7.85;;;;;;;;;;5071208;28;20082;-88
2022/12/30 08:18:40;;;;;;;11.73;8.02;;;;;;;;;;5069038;28;20391;-85
2022/12/30 08:21:09;;;;;;;13.18;7.28;;;;;;;;;;5074209;28;20108;-84
2022/12/30 08:23:35;;;;;;;16.77;7.72;;;;;;;;;;5072769;28;20487;-86
2022/12/30 08:26:12;;;;;;;11.57;7.50;;;;;;;;;;5073145;28;20075;-86
2022/12/30 08:28:38;;;;;;;13.13;9.23;;;;;;;;;;5071488;28;20133;-86
2022/12/30 08:31:13;;;;;;;18.63;10.07;;;;;;;;;;5072174;28;20063;-85
2022/12/30 08:33:39;;;;;;;9.25;6.00;;;;;;;;;;5105913;28;20388;-85
2022/12/30 08:36:07;;;;;;;11.85;7.55;;;;;;;;;;5072501;28;20036;-86
2022/12/30 08:38:36;;;;;;;14.07;7.22;;;;;;;;;;5070797;28;20395;-85
2022/12/30 08:41:07;;;;;;;11.35;6.43;;;;;;;;;;5070324;28;20454;-86
2022/12/30 08:43:33;;;;;;;12.52;8.40;;;;;;;;;;5073030;28;20074;-85
2022/12/30 08:45:59;;;;;;;14.82;8.38;;;;;;;;;;5072852;28;20031;-87
2022/12/30 08:48:24;;;;;;;15.07;6.68;;;;;;;;;;5074099;28;20100;-84
2022/12/30 08:50:52;;;;;;;13.13;9.45;;;;;;;;;;5073881;28;20383;-85
2022/12/30 08:53:17;;;;;;;11.60;8.38;;;;;;;;;;5073786;28;20056;-85
2022/12/30 08:55:43;;;;;;;14.25;8.43;;;;;;;;;;5072385;28;20071;-85
2022/12/30 08:58:08;;;;;;;15.95;9.27;;;;;;;;;;5088193;28;20472;-86
2022/12/30 09:00:34;;;;;;;19.30;7.78;;;;;;;;;;5072533;28;20020;-85
2022/12/30 09:02:59;;;;;;;15.10;10.57;;;;;;;;;;5072725;28;20028;-86
2022/12/30 09:05:24;;;;;;;15.65;9.05;;;;;;;;;;5101773;28;20027;-87
2022/12/30 09:07:50;;;;;;;17.40;10.50;;;;;;;;;;5069143;28;20388;-87
2022/12/30 09:10:15;;;;;;;15.90;9.45;;;;;;;;;;5071723;28;20613;-86
2022/12/30 09:12:41;;;;;;;17.55;10.10;;;;;;;;;;5071474;28;20035;-86
2022/12/30 09:15:07;;;;;;;16.50;9.98;;;;;;;;;;5071821;28;20036;-87
2022/12/30 09:17:32;;;;;;;13.15;10.43;;;;;;;;;;5070170;28;20044;-87
2022/12/30 09:19:58;;;;;;;15.15;11.57;;;;;;;;;;5073772;28;20021;-86
2022/12/30 09:22:24;;;;;;;13.50;9.35;;;;;;;;;;5071645;28;20037;-85
2022/12/30 09:24:49;;;;;;;17.50;9.95;;;;;;;;;;5072160;28;20049;-86
2022/12/30 09:27:15;;;;;;;16.40;10.13;;;;;;;;;;5072169;28;20047;-88
2022/12/30 09:29:40;;;;;;;13.48;8.98;;;;;;;;;;5071139;28;20482;-85
2022/12/30 09:32:05;;;;;;;15.60;10.05;;;;;;;;;;5074653;28;20043;-86
2022/12/30 09:34:31;;;;;;;14.95;9.23;;;;;;;;;;5069601;28;20090;-86
2022/12/30 09:36:56;;;;;;;15.27;9.45;;;;;;;;;;5072099;28;20028;-87
2022/12/30 09:39:30;;;;;;;14.38;9.20;;;;;;;;;;5073075;28;20380;-88
2022/12/30 09:45:23;;;;;;;14.93;9.10;;;;;;;;;;5072910;28;20031;-87
2022/12/30 09:47:52;;;;;;;15.13;9.00;;;;;;;;;;5057593;28;20043;-87
2022/12/30 09:50:40;;;;;;;12.93;9.20;;;;;;;;;;5071540;28;20111;-87
2022/12/30 09:53:08;;;;;;;21.08;9.43;;;;;;;;;;5071609;28;20468;-86
2022/12/30 09:55:45;;;;;;;13.88;9.65;;;;;;;;;;5071993;28;20013;-86
2022/12/30 09:58:16;;;;;;;13.07;7.68;;;;;;;;;;5070611;28;20028;-86
2022/12/30 10:00:41;;;;;;;15.48;9.00;;;;;;;;;;5071682;28;20103;-88
2022/12/30 10:03:11;;;;;;;18.60;10.30;;;;;;;;;;5072860;28;20099;-88
2022/12/30 10:05:42;;;;;;;11.55;7.93;;;;;;;;;;5086229;28;20146;-87
2022/12/30 10:08:16;;;;;;;14.77;8.30;;;;;;;;;;5072937;28;20047;-86
2022/12/30 10:10:47;;;;;;;12.55;8.57;;;;;;;;;;5071624;28;20268;-86
2022/12/30 10:13:17;;;;;;;14.32;10.30;;;;;;;;;;5071124;28;20025;-86
2022/12/30 10:16:08;;;;;;;17.98;10.63;;;;;;;;;;5068760;28;20035;-87
2022/12/30 10:19:15;;;;;;;12.55;9.40;;;;;;;;;;5068207;28;20046;-89
2022/12/30 10:21:45;;;;;;;13.75;8.73;;;;;;;;;;5058009;28;20162;-86
2022/12/30 10:24:16;;;;;;;12.73;8.88;;;;;;;;;;5072133;28;20029;-86
2022/12/30 10:26:44;;;;;;;20.17;9.88;;;;;;;;;;5070965;28;20040;-87
2022/12/30 10:29:36;;;;;;;12.00;7.30;;;;;;;;;;5069851;28;20385;-87
2022/12/30 10:32:30;;;;;;;16.48;9.43;;;;;;;;;;5070963;28;20158;-86
2022/12/30 10:35:13;;;;;;;13.57;9.23;;;;;;;;;;5067891;28;20117;-87
2022/12/30 10:37:39;;;;;;;12.82;8.10;;;;;;;;;;5085933;28;20032;-89
2022/12/30 10:40:15;;;;;;;12.52;7.75;;;;;;;;;;5073565;28;20024;-89
2022/12/30 10:42:56;;;;;;;13.52;8.35;;;;;;;;;;5070298;28;20177;-89
2022/12/30 10:45:53;;;;;;;16.23;8.18;;;;;;;;;;5068567;28;20170;-86
2022/12/30 10:49:05;;;;;;;12.13;7.80;;;;;;;;;;5070115;28;20029;-89
2022/12/30 10:51:31;;;;;;;23.77;7.65;;;;;;;;;;5020652;28;20033;-88
2022/12/30 10:54:00;;;;;;;11.15;6.20;;;;;;;;;;5021063;28;20116;-90
2022/12/30 10:56:29;;;;;;;11.55;7.63;;;;;;;;;;5033767;28;20044;-88
2022/12/30 10:59:10;;;;;;;13.55;9.13;;;;;;;;;;5069512;28;20467;-89
2022/12/30 11:01:38;;;;;;;11.82;8.23;;;;;;;;;;5084259;28;20020;-87
2022/12/30 11:04:04;;;;;;;14.07;8.30;;;;;;;;;;5072912;28;20526;-89
2022/12/30 11:06:37;;;;;;;16.67;9.18;;;;;;;;;;5070132;28;20029;-88
2022/12/30 11:09:11;;;;;;;11.63;7.93;;;;;;;;;;5072477;28;20028;-88
2022/12/30 11:14:42;;;;;;;13.63;8.50;;;;;;;;;;5071254;28;20061;-86
2022/12/30 11:17:23;;;;;;;11.18;8.57;;;;;;;;;;5070421;28;20032;-86
2022/12/30 11:19:50;;;;;;;13.20;8.75;;;;;;;;;;5070000;28;20029;-88
2022/12/30 11:22:16;;;;;;;22.02;10.77;;;;;;;;;;5072013;28;20032;-87
2022/12/30 11:25:16;;;;;;;17.55;10.07;;;;;;;;;;5071404;28;20026;-87
2022/12/30 11:27:42;;;;;;;;;;;;;;;;;;5070338;28;20123;-87
2022/12/30 11:30:27;;;;;;;13.98;7.07;;;;;;;;;;5070450;28;19996;-86
2022/12/30 11:32:55;;;;;;;15.75;9.35;;;;;;;;;;5072475;28;20028;-85
2022/12/30 11:35:39;;;;;;;13.25;9.35;;;;;;;;;;5071146;28;20086;-86
2022/12/30 11:38:29;;;;;;;13.77;9.48;;;;;;;;;;5103582;28;20032;-87
2022/12/30 11:40:55;;;;;;;13.88;7.43;;;;;;;;;;5071984;28;20027;-85
2022/12/30 11:43:22;;;;;;;14.52;8.25;;;;;;;;;;5070545;28;20434;-87
2022/12/30 11:45:48;;;;;;;14.27;7.07;;;;;;;;;;5072027;28;20024;-87
2022/12/30 11:48:26;;;;;;;13.40;8.90;;;;;;;;;;5070858;28;20074;-87
2022/12/30 11:50:53;;;;;;;33.53;10.70;;;;;;;;;;5070206;28;20021;-87
2022/12/30 11:53:21;;;;;;;15.15;8.88;;;;;;;;;;5074709;28;20034;-87
2022/12/30 11:55:53;;;;;;;18.35;8.90;;;;;;;;;;5075548;28;20029;-88
2022/12/30 11:58:19;;;;;;;16.25;7.65;;;;;;;;;;5073929;28;20029;-88
2022/12/30 12:00:48;;;;;;;14.43;9.55;;;;;;;;;;5068415;28;20388;-87
2022/12/30 12:03:16;;;;;;;12.80;8.27;;;;;;;;;;5072150;28;20397;-87
2022/12/30 12:06:09;;;;;;;12.25;8.48;;;;;;;;;;5073621;28;20100;-86
2022/12/30 12:08:49;;;;;;;10.13;7.38;;;;;;;;;;5087535;28;20029;-87
2022/12/30 12:11:22;;;;;;;15.73;8.88;;;;;;;;;;5074007;28;20525;-86
2022/12/30 12:14:27;;;;;;;15.52;8.88;;;;;;;;;;5088957;28;20040;-88
2022/12/30 12:17:08;;;;;;;13.95;8.90;;;;;;;;;;5072203;28;20052;-88
2022/12/30 12:19:47;;;;;;;13.75;9.60;;;;;;;;;;5088672;28;20515;-87
2022/12/30 12:22:23;;;;;;;11.20;7.50;;;;;;;;;;5087668;28;20538;-88
2022/12/30 12:24:56;;;;;;;12.88;7.22;;;;;;;;;;5071267;28;20028;-87
2022/12/30 12:27:22;;;;;;;12.07;7.47;;;;;;;;;;5072206;28;20024;-88
2022/12/30 12:29:48;;;;;;;18.77;9.80;;;;;;;;;;5074277;28;20789;-90
2022/12/30 12:32:43;;;;;;;14.40;9.20;;;;;;;;;;5074424;28;20059;-88
2022/12/30 12:35:14;;;;;;;14.35;8.73;;;;;;;;;;5086592;28;20034;-88
2022/12/30 12:37:49;;;;;;;12.32;7.30;;;;;;;;;;5070830;28;20072;-86
2022/12/30 12:40:44;;;;;;;14.25;8.25;;;;;;;;;;5073782;28;20028;-86
2022/12/30 12:43:47;;;;;;;10.48;7.05;;;;;;;;;;5072345;28;20025;-86
2022/12/30 12:46:33;;;;;;;11.85;7.50;;;;;;;;;;5067928;28;20471;-87
2022/12/30 12:49:38;;;;;;;13.25;8.43;;;;;;;;;;5071344;28;20403;-85
2022/12/30 12:52:28;;;;;;;11.57;7.97;;;;;;;;;;5070557;28;20024;-86
2022/12/30 12:55:12;;;;;;;10.30;7.03;;;;;;;;;;5070044;28;20503;-88
2022/12/30 12:57:45;;;;;;;16.10;9.70;;;;;;;;;;5072346;28;20043;-85
2022/12/30 13:00:13;;;;;;;8.43;6.72;;;;;;;;;;5071112;28;20020;-87
2022/12/30 13:02:53;;;;;;;8.75;5.97;;;;;;;;;;5072768;28;20070;-86
2022/12/30 13:05:32;;;;;;;8.77;5.43;;;;;;;;;;5086592;28;20026;-90
2022/12/30 13:08:25;;;;;;;8.52;5.32;;;;;;;;;;5071381;28;20549;-88
2022/12/30 13:11:09;;;;;;;8.27;5.68;;;;;;;;;;5088182;28;20028;-87
2022/12/30 13:13:48;;;;;;;8.20;5.70;;;;;;;;;;5074853;28;20035;-86
2022/12/30 13:16:17;;;;;;;9.85;5.95;;;;;;;;;;5071924;28;20059;-86
2022/12/30 13:18:46;;;;;;;10.15;5.03;;;;;;;;;;5087373;28;20051;-87
2022/12/30 13:21:16;;;;;;;9.32;5.07;;;;;;;;;;5074788;28;20048;-87
2022/12/30 13:23:46;;;;;;;5.72;4.13;;;;;;;;;;5074103;28;20387;-89
2022/12/30 13:26:11;;;;;;;9.52;5.07;;;;;;;;;;5074093;28;20032;-86
2022/12/30 13:28:38;;;;;;;10.90;6.45;;;;;;;;;;5072469;28;20085;-88
2022/12/30 13:31:24;;;;;;;6.35;4.53;;;;;;;;;;5073020;28;20020;-87
2022/12/30 13:34:14;;;;;;;7.53;5.60;;;;;;;;;;5105593;28;20431;-88
2022/12/30 13:37:18;;;;;;;10.23;5.43;;;;;;;;;;5074184;28;20431;-87
2022/12/30 13:40:16;;;;;;;7.28;4.65;;;;;;;;;;5074386;28;20028;-85
2022/12/30 13:45:44;;;;;;;6.90;3.85;;;;;;;;;;5070244;28;20062;-86
2022/12/30 13:48:28;;;;;;;10.05;6.07;;;;;;;;;;5070509;28;20129;-86
2022/12/30 13:51:22;;;;;;;9.40;6.30;;;;;;;;;;5089359;28;20437;-86
2022/12/30 13:54:19;;;;;;;9.73;5.53;;;;;;;;;;5074611;28;20395;-87
2022/12/30 13:57:11;;;;;;;9.07;4.78;;;;;;;;;;5073370;28;20411;-86
2022/12/30 14:00:29;;;;;;;;;;;;;;;;;;;;;
2022/12/30 14:03:24;;;;;;;7.57;5.07;;;;;;;;;;5068495;28;20028;-87
2022/12/30 14:06:48;;;;;;;9.43;4.90;;;;;;;;;;5069135;28;20040;-89
2022/12/30 14:09:46;;;;;;;8.73;5.28;;;;;;;;;;4994984;28;20136;-87
2022/12/30 14:12:46;;;;;;;9.85;5.90;;;;;;;;;;4998350;28;20036;-85
2022/12/30 14:15:36;;;;;;;8.20;5.38;;;;;;;;;;5053820;28;20435;-86
2022/12/30 14:18:29;;;;;;;8.98;5.70;;;;;;;;;;5068783;28;20029;-85
2022/12/30 14:21:08;;;;;;;10.07;5.82;;;;;;;;;;5047596;28;20043;-85
2022/12/30 14:23:54;;;;;;;10.43;4.88;;;;;;;;;;5053253;28;20029;-86
2022/12/30 14:30:47;;;;;;;;;;;;;;;;;;;;;
2022/12/30 14:34:38;;;;;;;;;;;;;;;;;;;;;
2022/12/30 14:37:38;;;;;;;2.97;2.67;;;;;;;;;;5070264;28;20105;-87
2022/12/30 14:44:23;;;;;;;4.32;2.38;;;;;;;;;;5052046;28;20112;-88
2022/12/30 14:47:47;;;;;;;;;;;;;;;;;;;;;
2022/12/30 15:05:03;;;;;;;;;;;;;;;;;;;;;
2022/12/30 15:08:36;;;;;;;;;;;;;;;;;;;;;
2022/12/30 15:14:19;;;;;;;1.67;1.58;;;;;;;;;;5008387;28;20029;-89
2022/12/30 15:17:03;;;;;;;2.22;2.03;;;;;;;;;;5070042;28;20025;-90
2022/12/30 15:19:29;;;;;;;4.25;2.75;;;;;;;;;;5072728;28;20032;-89
2022/12/30 15:21:54;;;;;;;2.50;1.90;;;;;;;;;;5070267;28;20158;-84
2022/12/30 15:24:20;;;;;;;5.53;1.85;;;;;;;;;;5068514;28;20078;-84
2022/12/30 15:26:49;;;;;;;3.35;2.05;;;;;;;;;;5084644;28;20049;-85
2022/12/30 15:29:19;;;;;;;1.92;0.90;;;;;;;;;;5071918;28;20039;-85
2022/12/30 15:32:19;;;;;;;2.88;1.30;;;;;;;;;;5070091;28;20033;-85
2022/12/30 15:34:45;;;;;;;3.23;0.93;;;;;;;;;;5070126;28;20785;-84
2022/12/30 15:37:20;;;;;;;4.07;2.25;;;;;;;;;;5068085;28;20525;-86
2022/12/30 15:39:49;;;;;;;2.75;1.20;;;;;;;;;;5071183;28;20516;-85
2022/12/30 15:42:19;;;;;;;2.00;1.27;;;;;;;;;;5068993;28;20029;-86
2022/12/30 15:44:45;;;;;;;1.60;1.10;;;;;;;;;;5067960;28;20267;-85
2022/12/30 15:47:27;;;;;;;2.17;1.85;;;;;;;;;;5067086;28;20232;-88
2022/12/30 15:50:00;;;;;;;2.25;1.08;;;;;;;;;;5069855;28;20104;-87
2022/12/30 15:52:40;;;;;;;3.90;2.30;;;;;;;;;;5102483;28;20021;-86
2022/12/30 15:55:06;;;;;;;15.13;10.05;;;;;;;;;;5069979;28;20094;-84
2022/12/30 15:57:34;;;;;;;9.80;7.18;;;;;;;;;;5067070;28;20140;-87
2022/12/30 16:00:07;;;;;;;1.50;1.17;;;;;;;;;;5072013;28;20384;-85
2022/12/30 16:02:38;;;;;;;2.65;1.77;;;;;;;;;;5102758;28;20035;-85
2022/12/30 16:05:07;;;;;;;0.75;0.75;;;;;;;;;;5069279;28;20117;-84
2022/12/30 16:07:38;;;;;;;7.28;4.68;;;;;;;;;;5069641;28;20044;-87
2022/12/30 16:10:09;;;;;;;1.63;1.17;;;;;;;;;;5070842;28;20111;-87
2022/12/30 16:12:35;;;;;;;2.88;1.83;;;;;;;;;;5071635;28;20046;-84
2022/12/30 16:15:09;;;;;;;3.45;2.22;;;;;;;;;;5070850;28;20021;-84
2022/12/30 16:17:50;;;;;;;5.05;1.95;;;;;;;;;;5068852;28;21078;-84
2022/12/30 16:20:37;;;;;;;6.55;5.32;;;;;;;;;;5067070;28;20052;-84
2022/12/30 16:23:09;;;;;;;6.38;3.45;;;;;;;;;;5069351;28;20480;-83
2022/12/30 16:25:37;;;;;;;2.67;1.27;;;;;;;;;;5069004;28;20045;-85
2022/12/30 16:28:04;;;;;;;2.35;1.50;;;;;;;;;;5070515;28;20028;-85
2022/12/30 16:30:35;;;;;;;1.33;1.15;;;;;;;;;;5070783;28;20050;-85
2022/12/30 16:33:15;;;;;;;1.60;1.30;;;;;;;;;;5070236;28;20027;-87
2022/12/30 16:35:45;;;;;;;1.67;1.30;;;;;;;;;;5067005;28;20024;-85
2022/12/30 16:38:11;;;;;;;;;;;;;;;;;;5069107;28;20032;-84
2022/12/30 16:40:37;;;;;;;1.17;1.08;;;;;;;;;;5073601;28;19939;-85